Tonalea, Arizona
Current Conditions -  °F | °C
As of 1:53 AM on Saturday 20 Dec 2014 (Local Time) from KPGA Reporting Station
Overcast Overcast  
Wind Chill: 38°   Ceiling: 9000
Heat Index: 38°   Visibility: 10mi
Dew Point: 30°   Wind: 0mph
Humidity: 73%   Direction: NA
Pressure: 30.2"   Gusts: NA
Location:  36.34°N, 110.98°W
Report Text: KPGA 200853Z AUTO 00000KT 10SM BKN090 OVC110 03/M01 A3020 RMK AO2 SLP220 T00331011 58003 TSNO
Loading
Personal Weather Stations






























Interactive Weather Map New forecast layout! Learn more

10-Day Weather Forecast

Advertisements
Track Severe Weather on mobile